메인 페이지
METAR-TAF:

METAR-TAF

공항 :

Leesburg, 플로리다, 미국

위도: 28-49-21N, 경도: 081-48-32W, 고도: 24m

현재 날씨관측

예보는 45분 전, 21:53시(UTC)에 발표되었습니다.
서남서16kt, 순간 최대 풍속 28kt
온도 29°C
습도 55%
기압 1006 hPa
시정: 16.1km
맑음

METAR: KLEE 312153Z 24016G28KT 10SM CLR 29/19 A2972 RMK AO2 PK WND 24031/2139 SLP064 T02890189

시각: 18:38 (22:38 UTC)

예보

예보는 5 시간 5분 전, 17:33시(UTC)에 발표되었습니다.
예보 대상 시간: 31일 18시부터 01일 18시까지 (UTC)
서남서14kt, 순간 최대 풍속 22kt
시정: 10km
고도 5000ft 상공 구름 보통
고도 25000ft 상공 구름 많음
01일 0100시부터 (UTC)
서남서12kt, 순간 최대 풍속 18kt
시정: 10km
고도 2500ft 상공 구름 보통
고도 4000ft 상공 구름 많음
시계 내 소나기
일시적
01일 01시부터 01일 04시까지 (UTC)
시정: 8.0km
고도 2500ft 상공 구름 많음
소나기
01일 0600시부터 (UTC)
서북서10kt
시정: 10km
고도 2000ft 상공 구름 보통
고도 4000ft 상공 구름 많음
01일 1400시부터 (UTC)
북북서11kt
시정: 10km
맑음

TAF: KLEE 311733Z 3118/0118 24014G22KT P6SM SCT050 BKN250 FM010100 25012G18KT P6SM VCSH SCT025 BKN040 TEMPO 0101/0104 5SM SHRA BKN025 FM010600 30010KT P6SM SCT020 BKN040 FM011400 34011KT P6SM SKC

4,000개 이상의 공항 관측 자료 및 예보 (METAR 및 TAF 보고).

지도상에서 검색 가능한 기상관측소가 노란 점과 빨간 점으로 표시되어 있습니다.

기상관측소 명을 보려면 표시 위로 마우스를 이동하세요.

날씨 관측과 예보를 보려면 클릭하세요.

지도 변경 : 확대하려면 엑스 표시가 있는 녹색 버튼, 축소하려면 빼기 표시가 있는 녹색 버튼, 다음 페이지의 지도를 보려면 녹색 화살표를 클릭하세요.


METAR-TAF: